Time;durP1;ratioP1;P1;durP2;ratioP2;P2;SDS_P1;SDS_P2;PMS_P1;PMS_P2;Temp;Humidity;BMP_temperature;BMP_pressure;BME280_temperature;BME280_humidity;BME280_pressure;Samples;Min_cycle;Max_cycle;Signal;HPM_P1;HPM_P2
2022/11/30 00:00:59;;;;;;;78.83;34.30;;;;;;;1.11;100.00;101495.31;4962514;28;20688;-75
2022/11/30 00:03:27;;;;;;;82.90;35.73;;;;;;;1.11;100.00;101491.03;4958868;28;20189;-75
2022/11/30 00:05:53;;;;;;;70.37;30.97;;;;;;;1.13;100.00;101502.22;4976488;28;20204;-75
2022/11/30 00:08:20;;;;;;;60.97;27.43;;;;;;;1.15;100.00;101504.84;4963886;28;20209;-75
2022/11/30 00:10:46;;;;;;;53.03;24.97;;;;;;;1.16;100.00;101509.13;4963431;28;20228;-75
2022/11/30 00:13:13;;;;;;;47.17;22.70;;;;;;;1.18;100.00;101509.16;4978433;28;20202;-75
2022/11/30 00:15:39;;;;;;;55.47;24.40;;;;;;;1.19;100.00;101518.63;4976463;28;20212;-75
2022/11/30 00:18:06;;;;;;;52.90;24.20;;;;;;;1.18;100.00;101515.19;4976680;28;20255;-75
2022/11/30 00:20:33;;;;;;;51.63;25.23;;;;;;;1.19;100.00;101511.78;4981597;28;20505;-75
2022/11/30 00:23:00;;;;;;;56.23;25.30;;;;;;;1.19;100.00;101511.78;5043921;28;20682;-75
2022/11/30 00:25:26;;;;;;;50.07;23.37;;;;;;;1.21;100.00;101514.38;4972304;28;20252;-75
2022/11/30 00:27:53;;;;;;;48.87;23.73;;;;;;;1.21;100.00;101511.81;4976175;28;20740;-75
2022/11/30 00:30:19;;;;;;;54.07;23.77;;;;;;;1.22;100.00;101519.56;4966041;28;20273;-75
2022/11/30 00:32:45;;;;;;;48.70;23.93;;;;;;;1.24;100.00;101517.06;4977121;28;20560;-75
2022/11/30 00:35:12;;;;;;;46.23;20.87;;;;;;;1.26;100.00;101515.38;4963967;28;20324;-75
2022/11/30 00:37:39;;;;;;;45.73;21.97;;;;;;;1.26;100.00;101505.97;4978730;28;20271;-75
2022/11/30 00:40:07;;;;;;;52.60;25.23;;;;;;;1.27;100.00;101506.84;4976081;28;20658;-75
2022/11/30 00:42:33;;;;;;;53.50;23.37;;;;;;;1.27;100.00;101501.72;4978213;28;20209;-76
2022/11/30 00:44:59;;;;;;;43.30;21.70;;;;;;;1.27;100.00;101507.72;4967841;28;20233;-76
2022/11/30 00:47:26;;;;;;;41.17;20.87;;;;;;;1.27;100.00;101499.16;4977545;28;20207;-75
2022/11/30 00:49:52;;;;;;;40.97;20.60;;;;;;;1.28;100.00;101504.31;4977140;28;20197;-75
2022/11/30 00:52:18;;;;;;;41.00;20.53;;;;;;;1.29;100.00;101503.47;4980836;28;20224;-75
2022/11/30 00:54:46;;;;;;;46.40;21.10;;;;;;;1.29;100.00;101507.75;4984433;28;20231;-75
2022/11/30 00:57:13;;;;;;;45.57;20.90;;;;;;;1.29;100.00;101511.19;4972698;28;20209;-75
2022/11/30 00:59:39;;;;;;;41.37;20.90;;;;;;;1.29;100.00;101508.63;4979169;28;20539;-75
2022/11/30 01:02:05;;;;;;;41.17;21.13;;;;;;;1.30;100.00;101518.09;4964547;28;20574;-75
2022/11/30 01:04:32;;;;;;;41.53;20.47;;;;;;;1.30;100.00;101517.19;4981876;28;20339;-75
2022/11/30 01:06:58;;;;;;;43.07;21.43;;;;;;;1.29;100.00;101511.19;4979030;28;20205;-75
2022/11/30 01:09:24;;;;;;;40.40;19.17;;;;;;;1.30;100.00;101520.66;5040266;28;20211;-76
2022/11/30 01:11:52;;;;;;;42.53;20.23;;;;;;;1.33;100.00;101519.84;4979345;28;20221;-75
2022/11/30 01:14:18;;;;;;;43.70;20.73;;;;;;;1.33;100.00;101522.41;4969883;28;20317;-73
2022/11/30 01:16:45;;;;;;;38.13;20.03;;;;;;;1.33;100.00;101525.84;5045385;28;20197;-73
2022/11/30 01:19:11;;;;;;;43.87;21.47;;;;;;;1.33;100.00;101525.00;4973420;28;20277;-73
2022/11/30 01:21:38;;;;;;;42.80;20.83;;;;;;;1.32;100.00;101524.13;4978513;28;20706;-74
2022/11/30 01:24:05;;;;;;;41.90;20.73;;;;;;;1.32;100.00;101531.84;4974807;28;20240;-73
2022/11/30 01:26:31;;;;;;;39.03;19.60;;;;;;;1.32;100.00;101530.97;4973189;28;20202;-73
2022/11/30 01:28:59;;;;;;;41.17;20.07;;;;;;;1.33;100.00;101528.41;4974207;28;20209;-74
2022/11/30 01:31:25;;;;;;;41.83;20.40;;;;;;;1.33;100.00;101525.84;4979821;28;20267;-73
2022/11/30 01:33:54;;;;;;;38.33;20.10;;;;;;;1.34;100.00;101529.31;5045089;28;20563;-74
2022/11/30 01:36:26;;;;;;;38.40;18.43;;;;;;;1.34;100.00;101526.75;4975445;28;20201;-73
2022/11/30 01:38:54;;;;;;;43.00;20.43;;;;;;;1.33;100.00;101527.56;4961429;28;20293;-73
2022/11/30 01:41:23;;;;;;;40.00;18.90;;;;;;;1.32;100.00;101531.84;4979343;28;20239;-74
2022/11/30 01:43:52;;;;;;;39.33;19.80;;;;;;;1.33;100.00;101536.13;4975388;28;20627;-73
2022/11/30 01:46:27;;;;;;;44.37;21.03;;;;;;;1.33;100.00;101531.00;4978379;28;20556;-73
2022/11/30 01:49:01;;;;;;;38.37;18.83;;;;;;;1.33;100.00;101530.13;4976788;28;20209;-73
2022/11/30 01:51:33;;;;;;;38.40;20.13;;;;;;;1.33;100.00;101533.56;4975509;28;20227;-73
2022/11/30 01:54:00;;;;;;;39.40;20.73;;;;;;;1.34;100.00;101537.03;4977581;28;20524;-73
2022/11/30 01:56:27;;;;;;;42.13;21.53;;;;;;;1.34;100.00;101531.88;4964251;28;20205;-74
2022/11/30 01:58:53;;;;;;;43.83;21.23;;;;;;;1.33;100.00;101531.00;4978214;28;20711;-74
2022/11/30 02:01:21;;;;;;;38.40;20.10;;;;;;;1.34;100.00;101531.88;4977663;28;20197;-74
2022/11/30 02:03:54;;;;;;;38.87;19.90;;;;;;;1.33;100.00;101533.56;4979207;28;20221;-73
2022/11/30 02:06:21;;;;;;;39.23;19.23;;;;;;;1.35;100.00;101543.03;4957492;28;20224;-73
2022/11/30 02:08:47;;;;;;;37.60;18.73;;;;;;;1.34;100.00;101537.03;4976740;28;20226;-73
2022/11/30 02:11:15;;;;;;;36.90;18.87;;;;;;;1.33;100.00;101538.69;4976071;28;20220;-73
2022/11/30 02:13:56;;;;;;;35.30;18.20;;;;;;;1.33;100.00;101533.56;4977112;28;20565;-73
2022/11/30 02:16:29;;;;;;;40.40;19.13;;;;;;;1.33;100.00;101537.84;4972102;28;20300;-74
2022/11/30 02:19:10;;;;;;;42.20;20.07;;;;;;;1.34;100.00;101539.59;4975417;28;20205;-74
2022/11/30 02:21:45;;;;;;;36.53;19.23;;;;;;;1.31;100.00;101536.94;4975124;28;20208;-74
2022/11/30 02:24:29;;;;;;;36.93;18.60;;;;;;;1.31;100.00;101535.22;4976659;28;20247;-73
2022/11/30 02:27:09;;;;;;;43.10;20.77;;;;;;;1.31;100.00;101535.22;4977695;28;20205;-73
2022/11/30 02:29:40;;;;;;;41.17;19.73;;;;;;;1.29;100.00;101530.88;4976937;28;20205;-73
2022/11/30 02:32:14;;;;;;;43.87;22.47;;;;;;;1.29;100.00;101530.88;5044094;28;20232;-73
2022/11/30 02:34:44;;;;;;;56.57;26.90;;;;;;;1.26;100.00;101531.66;4977350;28;20208;-74
2022/11/30 02:37:13;;;;;;;44.27;20.30;;;;;;;1.25;100.00;101534.19;5049593;28;20757;-73
2022/11/30 02:39:39;;;;;;;41.47;20.23;;;;;;;1.24;100.00;101528.19;4977135;28;20201;-73
2022/11/30 02:42:10;;;;;;;45.13;20.33;;;;;;;1.22;100.00;101529.84;4980183;28;20209;-73
2022/11/30 02:44:38;;;;;;;36.40;18.73;;;;;;;1.20;100.00;101531.50;4983092;28;20225;-73
2022/11/30 02:47:14;;;;;;;41.37;19.90;;;;;;;1.19;100.00;101532.34;4981229;28;20206;-73
2022/11/30 02:49:48;;;;;;;36.33;19.47;;;;;;;1.18;100.00;101532.28;4981506;28;20200;-74
2022/11/30 02:52:18;;;;;;;40.70;19.93;;;;;;;1.17;100.00;101536.56;5044475;28;20240;-73
2022/11/30 02:54:45;;;;;;;40.63;20.00;;;;;;;1.15;100.00;101534.78;4979078;28;20757;-74
2022/11/30 02:57:11;;;;;;;39.93;19.60;;;;;;;1.13;100.00;101535.63;4983446;28;20300;-74
2022/11/30 02:59:39;;;;;;;35.77;19.63;;;;;;;1.11;100.00;101537.28;4981011;28;20782;-74
2022/11/30 03:02:06;;;;;;;38.70;19.70;;;;;;;1.12;100.00;101533.84;4962865;28;20558;-73
2022/11/30 03:04:32;;;;;;;35.67;19.73;;;;;;;1.06;100.00;101541.41;4966534;28;20223;-73
2022/11/30 03:06:59;;;;;;;37.13;20.13;;;;;;;1.03;100.00;101540.47;4981630;28;20213;-73
2022/11/30 03:09:25;;;;;;;37.67;20.13;;;;;;;0.99;100.00;101544.66;4965791;28;20780;-74
2022/11/30 03:11:52;;;;;;;36.40;19.70;;;;;;;0.96;100.00;101538.56;4980858;28;20215;-73
2022/11/30 03:14:18;;;;;;;39.17;20.20;;;;;;;0.90;100.00;101539.25;4962591;28;20222;-74
2022/11/30 03:16:46;;;;;;;37.20;19.87;;;;;;;0.86;100.00;101546.00;4979204;28;20572;-73
2022/11/30 03:19:13;;;;;;;38.37;19.93;;;;;;;0.84;100.00;101546.78;5044047;28;20693;-73
2022/11/30 03:21:40;;;;;;;36.87;19.03;;;;;;;0.77;100.00;101550.84;4980426;28;20216;-73
2022/11/30 03:24:07;;;;;;;38.60;19.83;;;;;;;0.73;100.00;101546.47;4981678;28;20229;-73
2022/11/30 03:26:33;;;;;;;39.27;19.70;;;;;;;0.68;100.00;101558.28;4981905;28;20699;-74
2022/11/30 03:28:59;;;;;;;39.03;20.03;;;;;;;0.63;100.00;101567.56;4958796;28;20201;-73
2022/11/30 03:31:26;;;;;;;40.17;19.53;;;;;;;0.59;100.00;101563.16;4978154;28;20217;-73
2022/11/30 03:33:53;;;;;;;42.50;20.73;;;;;;;0.55;100.00;101568.19;4978831;28;20218;-73
2022/11/30 03:36:20;;;;;;;34.07;18.53;;;;;;;0.51;100.00;101570.63;4978675;28;20204;-73
2022/11/30 03:38:47;;;;;;;43.40;20.30;;;;;;;0.47;100.00;101569.66;4975039;28;20247;-74
2022/11/30 03:41:15;;;;;;;39.40;18.33;;;;;;;0.44;100.00;101577.28;4980438;28;20251;-73
2022/11/30 03:43:42;;;;;;;44.40;20.80;;;;;;;0.38;100.00;101572.81;4972895;28;20230;-73
2022/11/30 03:46:08;;;;;;;38.83;20.23;;;;;;;0.32;100.00;101580.34;4980802;28;20213;-73
2022/11/30 03:48:36;;;;;;;39.90;19.43;;;;;;;0.30;100.00;101586.22;4979476;28;20208;-73
2022/11/30 03:51:04;;;;;;;45.23;19.37;;;;;;;0.27;100.00;101583.59;4975682;28;21537;-73
2022/11/30 03:53:31;;;;;;;41.10;20.60;;;;;;;0.25;100.00;101593.78;4980458;28;20193;-73
2022/11/30 03:55:59;;;;;;;38.83;19.17;;;;;;;0.21;100.00;101591.06;4964880;28;20197;-74
2022/11/30 03:58:26;;;;;;;38.73;19.53;;;;;;;0.21;100.00;101588.50;4979749;28;20471;-73
2022/11/30 04:00:59;;;;;;;40.27;19.93;;;;;;;0.15;100.00;101587.50;5046246;28;20225;-74
2022/11/30 04:03:25;;;;;;;42.57;20.23;;;;;;;0.13;100.00;101589.13;4979114;28;20216;-73
2022/11/30 04:05:51;;;;;;;44.47;19.90;;;;;;;0.13;100.00;101586.56;4978526;28;20200;-73
2022/11/30 04:08:19;;;;;;;42.53;19.73;;;;;;;0.12;100.00;101581.38;4977995;28;20688;-73
2022/11/30 04:10:46;;;;;;;43.00;20.00;;;;;;;0.11;100.00;101584.78;4975403;28;20925;-74
2022/11/30 04:13:13;;;;;;;46.73;21.83;;;;;;;0.07;100.00;101583.81;4977722;28;20217;-73
2022/11/30 04:15:39;;;;;;;42.53;21.50;;;;;;;0.06;100.00;101592.34;4982335;28;20264;-73
2022/11/30 04:18:05;;;;;;;47.07;21.20;;;;;;;0.03;100.00;101588.81;4977915;28;20208;-73
2022/11/30 04:20:32;;;;;;;47.60;23.43;;;;;;;0.03;100.00;101587.09;4981652;28;20686;-74
2022/11/30 04:22:58;;;;;;;45.67;21.10;;;;;;;0.00;100.00;101594.72;4976775;28;20882;-73
2022/11/30 04:25:26;;;;;;;46.17;22.37;;;;;;;0.02;100.00;101599.88;4956797;28;20830;-73
2022/11/30 04:27:52;;;;;;;50.07;22.93;;;;;;;0.00;100.00;101599.84;4975657;28;20292;-73
2022/11/30 04:30:19;;;;;;;47.13;22.63;;;;;;;-0.02;100.00;101592.09;4979369;28;21021;-73
2022/11/30 04:32:45;;;;;;;42.90;21.43;;;;;;;0.01;100.00;101598.13;4978037;28;20225;-74
2022/11/30 04:35:11;;;;;;;45.27;21.87;;;;;;;0.01;100.00;101590.44;4981477;28;20213;-74
2022/11/30 04:37:38;;;;;;;50.60;24.27;;;;;;;0.01;100.00;101588.75;4981152;28;20198;-73
2022/11/30 04:40:06;;;;;;;49.30;23.77;;;;;;;0.02;100.00;101594.72;4971186;28;21130;-73
2022/11/30 04:42:33;;;;;;;49.60;24.07;;;;;;;-0.01;100.00;101598.09;4979557;28;20201;-73
2022/11/30 04:45:00;;;;;;;48.87;23.90;;;;;;;-0.01;100.00;101593.81;4970364;28;20346;-73
2022/11/30 04:47:27;;;;;;;47.30;23.47;;;;;;;0.01;100.00;101593.00;5041232;28;20254;-73
2022/11/30 04:49:53;;;;;;;53.53;24.23;;;;;;;0.00;100.00;101597.28;4978424;28;20208;-73
2022/11/30 04:52:19;;;;;;;49.10;24.00;;;;;;;-0.02;100.00;101596.31;4981127;28;20217;-73
2022/11/30 04:54:46;;;;;;;44.40;23.67;;;;;;;-0.08;100.00;101597.00;4969337;28;20213;-73
2022/11/30 04:57:12;;;;;;;54.90;24.77;;;;;;;-0.08;100.00;101599.56;4980897;28;20201;-73
2022/11/30 04:59:40;;;;;;;51.10;23.70;;;;;;;-0.09;100.00;101599.50;4974695;28;20728;-73
2022/11/30 05:02:06;;;;;;;50.17;24.50;;;;;;;-0.06;100.00;101609.88;4980081;28;20252;-73
2022/11/30 05:04:33;;;;;;;50.63;24.70;;;;;;;-0.08;100.00;101607.25;4976841;28;20881;-73
2022/11/30 05:07:00;;;;;;;45.90;23.60;;;;;;;-0.08;100.00;101607.25;4979412;28;20326;-73
2022/11/30 05:09:26;;;;;;;53.97;23.93;;;;;;;-0.08;100.00;101611.53;4975946;28;20208;-73
2022/11/30 05:11:53;;;;;;;54.10;24.57;;;;;;;-0.09;100.00;101612.34;4979848;28;20209;-73
2022/11/30 05:14:19;;;;;;;45.57;24.73;;;;;;;-0.09;100.00;101617.47;4972102;28;20546;-74
2022/11/30 05:16:48;;;;;;;49.00;23.87;;;;;;;-0.10;100.00;101615.75;4982674;28;20205;-74
2022/11/30 05:19:15;;;;;;;50.63;24.87;;;;;;;-0.10;100.00;101621.72;4979490;28;20197;-73
2022/11/30 05:21:41;;;;;;;53.57;25.10;;;;;;;-0.13;100.00;101628.44;4981510;28;20262;-74
2022/11/30 05:24:08;;;;;;;56.93;25.00;;;;;;;-0.15;100.00;101630.09;4978261;28;20262;-73
2022/11/30 05:26:35;;;;;;;52.00;25.03;;;;;;;-0.15;100.00;101640.34;4977784;28;20202;-74
2022/11/30 05:29:03;;;;;;;53.40;26.23;;;;;;;-0.15;100.00;101637.78;4959002;28;20303;-74
2022/11/30 05:31:30;;;;;;;49.30;23.40;;;;;;;-0.16;100.00;101633.47;4977178;28;20647;-73
2022/11/30 05:33:57;;;;;;;53.90;24.63;;;;;;;-0.18;100.00;101645.38;4973882;28;20243;-74
2022/11/30 05:36:24;;;;;;;45.83;23.17;;;;;;;-0.18;100.00;101633.41;4971904;28;20567;-74
2022/11/30 05:38:50;;;;;;;54.13;25.00;;;;;;;-0.20;100.00;101641.03;4976456;28;20293;-73
2022/11/30 05:41:17;;;;;;;50.50;24.50;;;;;;;-0.20;100.00;101647.88;4972706;28;20209;-73
2022/11/30 05:43:43;;;;;;;52.73;25.47;;;;;;;-0.18;100.00;101647.94;4978703;28;20221;-73
2022/11/30 05:46:10;;;;;;;55.80;24.70;;;;;;;-0.21;100.00;101652.13;4978975;28;20236;-73
2022/11/30 05:48:37;;;;;;;52.60;24.53;;;;;;;-0.23;100.00;101642.63;4973699;28;20202;-74
2022/11/30 05:51:09;;;;;;;50.43;23.10;;;;;;;-0.26;100.00;101643.41;4977195;28;20190;-74
2022/11/30 05:53:35;;;;;;;49.40;23.73;;;;;;;-0.27;100.00;101648.47;4979009;28;20233;-74
2022/11/30 05:56:03;;;;;;;50.83;24.63;;;;;;;-0.30;100.00;101646.69;4975402;28;20206;-74
2022/11/30 05:58:29;;;;;;;47.10;23.53;;;;;;;-0.31;100.00;101644.06;4978393;28;20372;-74
2022/11/30 06:00:56;;;;;;;43.37;23.20;;;;;;;-0.34;100.00;101649.94;4974817;28;20203;-74
2022/11/30 06:03:22;;;;;;;51.43;25.10;;;;;;;-0.32;100.00;101650.88;4970996;28;20215;-73
2022/11/30 06:05:50;;;;;;;50.03;23.80;;;;;;;-0.35;100.00;101655.91;4975793;28;20209;-74
2022/11/30 06:08:18;;;;;;;53.63;25.20;;;;;;;-0.38;100.00;101659.22;4965694;28;20287;-73
2022/11/30 06:10:44;;;;;;;48.50;23.90;;;;;;;-0.41;100.00;101663.38;4978114;28;20201;-73
2022/11/30 06:13:10;;;;;;;51.30;24.37;;;;;;;-0.46;100.00;101668.34;4983569;28;20212;-74
2022/11/30 06:15:37;;;;;;;46.90;22.93;;;;;;;-0.49;100.00;101668.25;4977315;28;20708;-73
2022/11/30 06:18:04;;;;;;;52.23;24.17;;;;;;;-0.47;100.00;101664.03;4964231;28;20202;-73
2022/11/30 06:20:33;;;;;;;47.70;22.60;;;;;;;-0.53;100.00;101665.50;4980921;28;20190;-73
2022/11/30 06:22:59;;;;;;;48.27;23.37;;;;;;;-0.56;100.00;101668.84;4981318;28;20202;-73
2022/11/30 06:25:27;;;;;;;56.43;25.63;;;;;;;-0.58;100.00;101668.78;4980621;28;20308;-73
2022/11/30 06:27:53;;;;;;;52.70;24.60;;;;;;;-0.63;100.00;101675.41;4979103;28;20220;-73
2022/11/30 06:30:21;;;;;;;47.37;22.33;;;;;;;-0.63;100.00;101669.44;5043836;28;20206;-73
2022/11/30 06:32:49;;;;;;;56.17;24.23;;;;;;;-0.64;100.00;101678.78;4964644;28;20225;-73
2022/11/30 06:35:15;;;;;;;52.10;22.67;;;;;;;-0.61;100.00;101678.03;4975395;28;20229;-74
2022/11/30 06:37:42;;;;;;;59.03;24.20;;;;;;;-0.58;100.00;101676.47;4975744;28;20205;-74
2022/11/30 06:40:11;;;;;;;46.30;24.00;;;;;;;-0.55;100.00;101672.25;4971066;28;20205;-73
2022/11/30 06:42:39;;;;;;;54.73;24.20;;;;;;;-0.52;100.00;101672.38;4979485;28;20246;-73
2022/11/30 06:45:06;;;;;;;45.90;23.83;;;;;;;-0.53;100.00;101668.91;4975389;28;20233;-73
2022/11/30 06:47:33;;;;;;;55.90;26.50;;;;;;;-0.52;100.00;101670.69;4981479;28;20243;-74
2022/11/30 06:49:59;;;;;;;52.90;25.27;;;;;;;-0.53;100.00;101676.59;4975084;28;20202;-74
2022/11/30 06:52:26;;;;;;;58.27;26.87;;;;;;;-0.55;100.00;101677.38;4978529;28;20221;-73
2022/11/30 06:54:52;;;;;;;51.43;25.80;;;;;;;-0.54;100.00;101684.25;4977919;28;20736;-74
2022/11/30 06:57:18;;;;;;;54.33;24.77;;;;;;;-0.57;100.00;101683.31;5045530;28;20459;-73
2022/11/30 06:59:46;;;;;;;60.60;26.73;;;;;;;-0.55;100.00;101679.94;4980054;28;20203;-74
2022/11/30 07:02:14;;;;;;;65.50;27.97;;;;;;;-0.55;100.00;101685.06;4976208;28;20197;-74
2022/11/30 07:04:40;;;;;;;51.77;25.00;;;;;;;-0.54;100.00;101692.81;4978185;28;20596;-73
2022/11/30 07:07:07;;;;;;;57.33;28.67;;;;;;;-0.57;100.00;101688.44;4981416;28;20208;-73
2022/11/30 07:09:34;;;;;;;55.10;27.73;;;;;;;-0.55;100.00;101679.94;4978772;28;20599;-74
2022/11/30 07:12:00;;;;;;;60.17;29.30;;;;;;;-0.58;100.00;101684.16;4977193;28;20258;-73
2022/11/30 07:14:29;;;;;;;59.80;27.50;;;;;;;-0.59;100.00;101682.38;4966830;28;20664;-73
2022/11/30 07:16:57;;;;;;;63.20;26.80;;;;;;;-0.59;100.00;101689.22;5048985;28;20677;-73
2022/11/30 07:19:24;;;;;;;57.30;28.70;;;;;;;-0.58;100.00;101691.84;4986041;28;20198;-73
2022/11/30 07:21:50;;;;;;;57.47;27.80;;;;;;;-0.59;100.00;101692.63;4981324;28;20205;-73
2022/11/30 07:27:02;;;;;;;53.00;28.17;;;;;;;-0.52;100.00;101698.00;4977434;28;20218;-73
2022/11/30 07:29:28;;;;;;;56.77;27.63;;;;;;;-0.51;100.00;101704.84;5042648;28;20198;-73
2022/11/30 07:31:56;;;;;;;60.23;27.53;;;;;;;-0.50;100.00;101707.47;4969870;28;20212;-73
2022/11/30 07:34:23;;;;;;;60.37;27.47;;;;;;;-0.48;100.00;101707.53;4981259;28;20245;-73
2022/11/30 07:36:49;;;;;;;53.40;28.50;;;;;;;-0.47;100.00;101714.41;4963351;28;20201;-73
2022/11/30 07:39:15;;;;;;;60.53;29.63;;;;;;;-0.47;100.00;101714.41;4981125;28;20206;-73
2022/11/30 07:41:42;;;;;;;61.17;27.90;;;;;;;-0.45;100.00;101718.75;4973644;28;20236;-73
2022/11/30 07:44:10;;;;;;;55.07;26.97;;;;;;;-0.48;100.00;101716.09;4966642;28;20234;-73
2022/11/30 07:46:37;;;;;;;59.30;27.70;;;;;;;-0.48;100.00;101721.22;4965463;28;20201;-73
2022/11/30 07:49:07;;;;;;;62.37;27.77;;;;;;;-0.51;100.00;101730.47;4968144;28;20201;-73
2022/11/30 07:51:33;;;;;;;59.50;28.23;;;;;;;-0.50;100.00;101732.22;4980500;28;20662;-74
2022/11/30 07:54:00;;;;;;;66.70;29.57;;;;;;;-0.53;100.00;101727.84;4978298;28;20240;-73
2022/11/30 07:56:28;;;;;;;63.30;29.23;;;;;;;-0.53;100.00;101732.13;4980603;28;20214;-73
2022/11/30 07:58:56;;;;;;;62.63;29.27;;;;;;;-0.50;100.00;101732.22;4977895;28;20500;-74
2022/11/30 08:01:24;;;;;;;63.97;30.53;;;;;;;-0.46;100.00;101734.06;4987535;28;20666;-74
2022/11/30 08:03:52;;;;;;;65.33;29.47;;;;;;;-0.42;100.00;101735.97;4982912;28;20218;-74
2022/11/30 08:06:21;;;;;;;64.63;28.40;;;;;;;-0.35;100.00;101734.47;4980071;28;20630;-73
2022/11/30 08:08:49;;;;;;;61.13;27.67;;;;;;;-0.31;100.00;101738.91;4993405;28;20221;-73
2022/11/30 08:11:17;;;;;;;64.63;28.63;;;;;;;-0.29;100.00;101744.97;4981739;28;20208;-74
2022/11/30 08:13:45;;;;;;;61.60;28.33;;;;;;;-0.36;100.00;101750.69;4980290;28;20585;-73
2022/11/30 08:16:13;;;;;;;67.20;29.37;;;;;;;-0.36;100.00;101745.56;4978150;28;20201;-73
2022/11/30 08:18:40;;;;;;;66.70;27.47;;;;;;;-0.34;100.00;101749.03;4960490;28;20715;-73
2022/11/30 08:21:09;;;;;;;63.60;29.10;;;;;;;-0.32;100.00;101750.81;4976335;28;20199;-74
2022/11/30 08:23:39;;;;;;;66.77;28.10;;;;;;;-0.32;100.00;101749.97;4976840;28;20221;-73
2022/11/30 08:26:07;;;;;;;63.80;28.77;;;;;;;-0.39;100.00;101744.63;4971184;28;20364;-73
2022/11/30 08:28:34;;;;;;;69.00;29.60;;;;;;;-0.41;100.00;101750.50;4979685;28;20211;-73
2022/11/30 08:31:02;;;;;;;68.47;27.67;;;;;;;-0.40;100.00;101742.00;4965186;28;20257;-73
2022/11/30 08:33:29;;;;;;;70.00;28.57;;;;;;;-0.47;100.00;101755.41;4974464;28;20309;-73
2022/11/30 08:36:05;;;;;;;65.70;28.17;;;;;;;-0.49;100.00;101752.78;4974156;28;20209;-73
2022/11/30 08:38:31;;;;;;;67.30;25.73;;;;;;;-0.51;100.00;101758.66;4974033;28;20210;-73
2022/11/30 08:40:59;;;;;;;64.07;27.00;;;;;;;-0.47;100.00;101765.66;4969352;28;20582;-73
2022/11/30 08:43:27;;;;;;;72.90;27.30;;;;;;;-0.56;100.00;101763.63;4980737;28;20209;-73
2022/11/30 08:45:53;;;;;;;67.67;26.73;;;;;;;-0.67;100.00;101762.34;4982488;28;20416;-73
2022/11/30 08:48:20;;;;;;;69.37;27.13;;;;;;;-0.70;100.00;101768.22;4966298;28;20205;-74
2022/11/30 08:50:46;;;;;;;70.23;28.57;;;;;;;-0.69;100.00;101761.41;4984265;28;20287;-73
2022/11/30 08:53:13;;;;;;;62.33;26.70;;;;;;;-0.72;100.00;101767.31;4981639;28;20209;-73
2022/11/30 08:55:39;;;;;;;69.03;26.13;;;;;;;-0.66;100.00;101766.66;4981085;28;20201;-73
2022/11/30 08:58:07;;;;;;;76.50;28.20;;;;;;;-0.67;100.00;101768.34;4979166;28;20201;-74
2022/11/30 09:00:33;;;;;;;57.80;24.37;;;;;;;-0.54;100.00;101767.13;4981190;28;20197;-73
2022/11/30 09:03:00;;;;;;;62.77;28.53;;;;;;;-0.50;100.00;101771.53;5045031;28;20202;-73
2022/11/30 09:05:28;;;;;;;62.13;27.60;;;;;;;-0.44;100.00;101779.47;4981332;28;20253;-74
2022/11/30 09:07:55;;;;;;;62.47;27.47;;;;;;;-0.44;100.00;101779.47;5046303;28;20212;-73
2022/11/30 09:10:21;;;;;;;60.43;26.57;;;;;;;-0.38;100.00;101774.53;4981791;28;20205;-73
2022/11/30 09:12:47;;;;;;;60.80;24.50;;;;;;;-0.35;100.00;101784.06;4977875;28;20657;-73
2022/11/30 09:15:15;;;;;;;65.37;27.27;;;;;;;-0.27;100.00;101790.31;4980833;28;20220;-73
2022/11/30 09:17:42;;;;;;;67.07;27.87;;;;;;;-0.29;100.00;101789.38;4975987;28;20239;-74
2022/11/30 09:20:09;;;;;;;60.53;26.50;;;;;;;-0.31;100.00;101787.59;4977920;28;20202;-74
2022/11/30 09:22:35;;;;;;;69.20;27.17;;;;;;;-0.32;100.00;101789.28;4978645;28;20427;-74
2022/11/30 09:25:01;;;;;;;65.50;27.07;;;;;;;-0.42;100.00;101785.50;4980459;28;20266;-73
2022/11/30 09:27:31;;;;;;;65.17;27.53;;;;;;;-0.44;100.00;101786.25;4977491;28;20771;-73
2022/11/30 09:29:58;;;;;;;59.33;26.50;;;;;;;-0.40;100.00;101789.00;4967013;28;20229;-74
2022/11/30 09:32:25;;;;;;;65.43;27.47;;;;;;;-0.32;100.00;101790.97;4970994;28;20202;-74
2022/11/30 09:34:52;;;;;;;61.73;27.57;;;;;;;-0.31;100.00;101796.16;4966209;28;20696;-73
2022/11/30 09:37:18;;;;;;;65.40;28.03;;;;;;;-0.32;100.00;101786.72;4980250;28;20215;-73
2022/11/30 09:39:45;;;;;;;67.83;27.30;;;;;;;-0.35;100.00;101796.88;4973073;28;20244;-74
2022/11/30 09:42:26;;;;;;;65.90;28.10;;;;;;;-0.31;100.00;101793.59;4978870;28;20201;-73
2022/11/30 09:45:03;;;;;;;71.93;26.87;;;;;;;-0.33;100.00;101792.66;4976496;28;20225;-73
2022/11/30 09:47:42;;;;;;;68.00;27.90;;;;;;;-0.43;100.00;101794.00;4985792;28;20301;-73
2022/11/30 09:50:13;;;;;;;68.93;28.00;;;;;;;-0.39;100.00;101795.00;5042538;28;20209;-74
2022/11/30 09:52:44;;;;;;;65.40;28.00;;;;;;;-0.34;100.00;101797.72;4973898;28;20198;-73
2022/11/30 09:55:14;;;;;;;69.93;28.63;;;;;;;-0.26;100.00;101793.78;4980061;28;20301;-73
2022/11/30 09:57:47;;;;;;;61.30;27.93;;;;;;;-0.18;100.00;101792.34;5044340;28;20214;-73
2022/11/30 10:00:16;;;;;;;63.50;26.53;;;;;;;-0.15;100.00;101791.59;4983649;28;20672;-73
2022/11/30 10:02:45;;;;;;;73.70;29.13;;;;;;;-0.17;100.00;101791.53;4979017;28;20681;-73
2022/11/30 10:05:13;;;;;;;64.37;27.97;;;;;;;-0.09;100.00;101799.50;4978543;28;20217;-73
2022/11/30 10:07:54;;;;;;;69.97;28.77;;;;;;;-0.08;100.00;101794.44;4975138;28;20224;-73
2022/11/30 10:10:28;;;;;;;70.63;30.23;;;;;;;-0.02;100.00;101796.34;4975055;28;20254;-73
2022/11/30 10:13:05;;;;;;;100.90;46.83;;;;;;;0.01;100.00;101795.59;4974868;28;20697;-73
2022/11/30 10:15:45;;;;;;;63.73;28.67;;;;;;;0.03;100.00;101793.94;4975530;28;20303;-73
2022/11/30 10:18:23;;;;;;;64.53;27.60;;;;;;;-0.04;100.00;101805.66;4977847;28;20619;-73
2022/11/30 10:20:58;;;;;;;69.73;30.80;;;;;;;-0.05;100.00;101814.19;4975990;28;20600;-73
2022/11/30 10:24:03;;;;;;;64.43;26.97;;;;;;;-0.10;100.00;101806.31;4976697;28;20608;-73
2022/11/30 10:26:33;;;;;;;65.47;26.80;;;;;;;-0.21;100.00;101805.06;4973670;28;20217;-73
2022/11/30 10:29:06;;;;;;;70.77;27.80;;;;;;;-0.18;100.00;101805.16;4974316;28;20474;-73
2022/11/30 10:31:34;;;;;;;62.67;28.00;;;;;;;-0.24;100.00;101807.50;4979375;28;20220;-74
2022/11/30 10:34:15;;;;;;;68.70;27.93;;;;;;;-0.25;100.00;101798.94;4973848;28;20602;-73
2022/11/30 10:36:46;;;;;;;66.23;27.20;;;;;;;-0.16;100.00;101800.09;4988709;28;20202;-74
2022/11/30 10:39:20;;;;;;;71.80;28.07;;;;;;;-0.09;100.00;101800.41;4976970;28;20204;-73
2022/11/30 10:41:52;;;;;;;63.40;28.00;;;;;;;-0.17;100.00;101796.66;4980316;28;20193;-74
2022/11/30 10:44:23;;;;;;;70.63;28.53;;;;;;;-0.11;100.00;101794.31;4982180;28;20226;-72
2022/11/30 10:46:56;;;;;;;63.33;28.47;;;;;;;-0.03;100.00;101804.88;4991568;28;20610;-72
2022/11/30 10:49:27;;;;;;;72.17;28.63;;;;;;;-0.07;100.00;101797.84;4976950;28;20193;-72
2022/11/30 10:51:59;;;;;;;67.37;28.50;;;;;;;-0.01;100.00;101791.25;4987669;28;20534;-72
2022/11/30 10:54:25;;;;;;;70.10;28.57;;;;;;;-0.01;100.00;101795.53;4986965;28;20225;-72
2022/11/30 10:56:51;;;;;;;70.10;29.80;;;;;;;0.03;100.00;101793.94;4992271;28;20591;-72
2022/11/30 10:59:23;;;;;;;77.47;34.57;;;;;;;0.05;100.00;101790.59;4967068;28;20209;-72
2022/11/30 11:01:51;;;;;;;75.20;30.80;;;;;;;0.03;100.00;101788.81;4978244;28;20235;-72
2022/11/30 11:04:21;;;;;;;77.20;31.27;;;;;;;0.07;100.00;101794.13;4986087;28;20304;-72
2022/11/30 11:06:52;;;;;;;69.37;28.43;;;;;;;0.06;100.00;101797.50;4985354;28;20648;-72
2022/11/30 11:09:45;;;;;;;82.20;32.50;;;;;;;0.08;100.00;101798.41;4985840;28;20266;-72
2022/11/30 11:12:16;;;;;;;78.13;28.97;;;;;;;-0.05;100.00;101791.13;4983086;28;20213;-72